createdAt,value
2022-09-17T00:01:23.321Z,1.16
2022-09-17T00:05:20.641Z,1.09
2022-09-17T00:09:20.378Z,1.09
2022-09-17T00:13:20.587Z,1.09
2022-09-17T00:17:24.550Z,1.09
2022-09-17T00:21:20.326Z,1.09
2022-09-17T00:25:20.145Z,1.09
2022-09-17T00:29:20.389Z,1.09
2022-09-17T00:33:20.539Z,1.09
2022-09-17T00:37:20.124Z,1.09
2022-09-17T00:41:20.326Z,1.09
2022-09-17T00:45:20.498Z,1.09
2022-09-17T00:49:20.654Z,1.09
2022-09-17T00:53:20.176Z,1.09
2022-09-17T00:57:21.091Z,1.09
2022-09-17T01:01:23.054Z,1.09
2022-09-17T01:05:20.957Z,1.09
2022-09-17T01:09:20.296Z,0.25
2022-09-17T01:13:20.553Z,0.26
2022-09-17T01:17:21.199Z,0.58
2022-09-17T01:21:21.157Z,0.58
2022-09-17T01:25:20.265Z,0.58
2022-09-17T01:29:20.959Z,0.58
2022-09-17T01:33:20.713Z,0.58
2022-09-17T01:37:20.885Z,0.58
2022-09-17T01:41:21.386Z,0.58
2022-09-17T01:45:20.640Z,0.58
2022-09-17T01:49:20.305Z,0.58
2022-09-17T01:53:20.141Z,0.58
2022-09-17T01:57:21.031Z,0.58
2022-09-17T02:01:25.196Z,0.58
2022-09-17T02:05:20.891Z,0.58
2022-09-17T02:09:26.522Z,0.58
2022-09-17T02:13:20.164Z,0.58
2022-09-17T02:17:21.163Z,0.58
2022-09-17T02:21:20.425Z,0.22
2022-09-17T02:25:20.320Z,0.24
2022-09-17T02:29:22.399Z,0.24
2022-09-17T02:33:19.901Z,0.24
2022-09-17T02:37:20.183Z,0.24
2022-09-17T02:41:21.325Z,0.24
2022-09-17T02:45:20.051Z,0.24
2022-09-17T02:49:20.072Z,0.24
2022-09-17T02:53:20.243Z,0.24
2022-09-17T02:57:20.694Z,0.24
2022-09-17T03:01:24.549Z,0.24
2022-09-17T03:05:20.418Z,0.24
2022-09-17T03:09:20.687Z,0.24
2022-09-17T03:13:19.965Z,0.24
2022-09-17T03:17:21.211Z,0.24
2022-09-17T03:21:20.101Z,0.24
2022-09-17T03:25:20.471Z,0.24
2022-09-17T03:29:20.949Z,0.21
2022-09-17T03:33:20.501Z,0.21
2022-09-17T03:37:20.925Z,0.53
2022-09-17T03:41:21.015Z,0.53
2022-09-17T03:45:20.450Z,0.53
2022-09-17T03:49:20.130Z,0.53
2022-09-17T03:53:20.834Z,0.53
2022-09-17T03:57:20.158Z,0.53
2022-09-17T04:01:24.149Z,0.53
2022-09-17T04:05:20.528Z,0.53
2022-09-17T04:09:20.223Z,0.53
2022-09-17T04:13:20.983Z,0.53
2022-09-17T04:17:20.761Z,0.53
2022-09-17T04:21:20.883Z,0.53
2022-09-17T04:25:20.219Z,0.53
2022-09-17T04:29:20.852Z,0.53
2022-09-17T04:33:20.614Z,0.53
2022-09-17T04:37:20.731Z,0.53
2022-09-17T04:41:26.711Z,0.53
2022-09-17T04:45:20.473Z,0.53
2022-09-17T04:49:21.086Z,0.53
2022-09-17T04:53:26.618Z,0.53
2022-09-17T04:57:20.227Z,0.53
2022-09-17T05:01:24.094Z,0.53
2022-09-17T05:05:20.837Z,0.53
2022-09-17T05:09:21.092Z,0.53
2022-09-17T05:13:20.896Z,0.53
2022-09-17T05:17:20.974Z,0.53
2022-09-17T05:21:20.306Z,0.53
2022-09-17T05:25:21.336Z,0.53
2022-09-17T05:29:20.613Z,0.53
2022-09-17T05:33:21.100Z,0.53
2022-09-17T05:37:20.924Z,0.53
2022-09-17T05:41:20.732Z,0.53
2022-09-17T05:45:25.518Z,0.53
2022-09-17T05:49:20.612Z,0.53
2022-09-17T05:53:20.536Z,0.53
2022-09-17T05:57:20.844Z,0.53
2022-09-17T06:01:23.567Z,0.53
2022-09-17T06:05:20.426Z,0.53
2022-09-17T06:09:20.597Z,0.53
2022-09-17T06:13:20.093Z,0.53
2022-09-17T06:17:22.303Z,0.53
2022-09-17T06:21:20.318Z,0.53
2022-09-17T06:25:20.166Z,0.53
2022-09-17T06:29:26.536Z,0.53
2022-09-17T06:33:20.252Z,0.53
2022-09-17T06:37:22.233Z,0.53
2022-09-17T06:41:20.602Z,0.53
2022-09-17T06:45:28.223Z,0.15
2022-09-17T06:49:20.284Z,0.41
2022-09-17T06:53:20.634Z,0.41
2022-09-17T06:57:25.287Z,0.41
2022-09-17T07:01:23.586Z,0.41
2022-09-17T07:05:20.507Z,0.41
2022-09-17T07:09:22.504Z,0.41
2022-09-17T07:13:23.959Z,0.41
2022-09-17T07:17:20.865Z,0.41
2022-09-17T07:21:20.231Z,0.41
2022-09-17T07:25:20.057Z,0.41
2022-09-17T07:29:20.967Z,0.41
2022-09-17T07:33:20.083Z,0.41
2022-09-17T07:37:19.946Z,0.41
2022-09-17T07:41:21.302Z,0.41
2022-09-17T07:45:24.382Z,0.41
2022-09-17T07:49:20.556Z,0.41
2022-09-17T07:53:20.676Z,0.41
2022-09-17T07:57:20.456Z,0.19
2022-09-17T08:01:23.603Z,0.47
2022-09-17T08:05:20.145Z,0.47
2022-09-17T08:09:20.354Z,0.57
2022-09-17T08:13:20.581Z,0.63
2022-09-17T08:17:21.313Z,0.63
2022-09-17T08:21:20.395Z,0.66
2022-09-17T08:25:19.994Z,0.69
2022-09-17T08:29:20.450Z,0.69
2022-09-17T08:33:20.257Z,0.7
2022-09-17T08:37:20.688Z,0.72
2022-09-17T08:41:20.851Z,0.72
2022-09-17T08:45:23.561Z,0.74
2022-09-17T08:49:20.267Z,0.73
2022-09-17T08:53:20.821Z,0.73
2022-09-17T08:57:20.438Z,0.76
2022-09-17T09:01:23.582Z,0.75
2022-09-17T09:05:20.273Z,0.75
2022-09-17T09:09:20.610Z,0.76
2022-09-17T09:13:19.950Z,0.78
2022-09-17T09:17:20.994Z,0.78
2022-09-17T09:21:20.668Z,0.78
2022-09-17T09:25:20.414Z,0.79
2022-09-17T09:29:20.370Z,0.79
2022-09-17T09:33:24.449Z,0.77
2022-09-17T09:37:20.604Z,0.78
2022-09-17T09:41:20.677Z,0.78
2022-09-17T09:45:37.950Z,0.79
2022-09-17T09:49:19.954Z,0.79
2022-09-17T09:53:20.628Z,0.79
2022-09-17T09:57:20.241Z,0.78
2022-09-17T10:01:23.997Z,0.76
2022-09-17T10:05:27.097Z,0.76
2022-09-17T10:09:20.776Z,0.82
2022-09-17T10:13:20.099Z,0.79
2022-09-17T10:17:21.096Z,0.79
2022-09-17T10:21:21.175Z,0.79
2022-09-17T10:25:20.841Z,0.82
2022-09-17T10:29:20.996Z,0.82
2022-09-17T10:33:20.404Z,0.8
2022-09-17T10:37:23.171Z,0.81
2022-09-17T10:41:20.724Z,0.81
2022-09-17T10:45:20.787Z,0.83
2022-09-17T10:49:19.905Z,0.79
2022-09-17T10:53:20.904Z,0.79
2022-09-17T10:57:21.062Z,0.79
2022-09-17T11:01:23.404Z,0.8
2022-09-17T11:05:20.796Z,0.8
2022-09-17T11:09:20.940Z,0.78
2022-09-17T11:13:20.651Z,0.78
2022-09-17T11:17:21.653Z,0.78
2022-09-17T11:21:21.025Z,0.79
2022-09-17T11:25:20.193Z,0.78
2022-09-17T11:29:21.030Z,0.78
2022-09-17T11:33:20.799Z,0.78
2022-09-17T11:37:20.849Z,0.78
2022-09-17T11:41:21.016Z,0.78
2022-09-17T11:45:20.619Z,0.77
2022-09-17T11:49:20.875Z,0.77
2022-09-17T11:53:20.620Z,0.77
2022-09-17T11:57:21.238Z,0.78
2022-09-17T12:01:25.261Z,0.78
2022-09-17T12:05:20.442Z,0.78
2022-09-17T12:09:22.528Z,0.78
2022-09-17T12:13:52.726Z,0.78
2022-09-17T12:17:21.211Z,0.78
2022-09-17T12:21:21.083Z,0.77
2022-09-17T12:25:20.417Z,0.78
2022-09-17T12:29:19.935Z,0.78
2022-09-17T12:33:20.270Z,0.77
2022-09-17T12:37:24.568Z,0.78
2022-09-17T12:41:21.197Z,0.78
2022-09-17T12:45:20.607Z,0.79
2022-09-17T12:49:20.464Z,0.79
2022-09-17T12:53:20.047Z,0.79
2022-09-17T12:57:20.218Z,0.78
2022-09-17T13:01:27.582Z,0.78
2022-09-17T13:05:47.575Z,0.78
2022-09-17T13:09:20.036Z,0.79
2022-09-17T13:13:20.709Z,0.78
2022-09-17T13:17:25.978Z,0.78
2022-09-17T13:21:20.067Z,0.78
2022-09-17T13:25:21.141Z,0.77
2022-09-17T13:29:21.719Z,0.77
2022-09-17T13:33:20.056Z,0.77
2022-09-17T13:37:20.140Z,0.78
2022-09-17T13:41:21.134Z,0.78
2022-09-17T13:45:24.776Z,0.77
2022-09-17T13:49:20.677Z,0.77
2022-09-17T13:53:20.536Z,0.77
2022-09-17T13:57:20.162Z,0.76
2022-09-17T14:01:23.627Z,0.76
2022-09-17T14:05:20.912Z,0.76
2022-09-17T14:09:20.525Z,0.77
2022-09-17T14:13:20.279Z,0.77
2022-09-17T14:17:21.112Z,0.77
2022-09-17T14:21:20.646Z,0.76
2022-09-17T14:25:20.376Z,0.76
2022-09-17T14:29:21.107Z,0.76
2022-09-17T14:33:20.225Z,0.76
2022-09-17T14:37:22.383Z,0.75
2022-09-17T14:41:21.009Z,0.75
2022-09-17T14:45:21.515Z,0.75
2022-09-17T14:49:22.657Z,0.75
2022-09-17T14:53:21.683Z,0.75
2022-09-17T14:57:20.261Z,0.75
2022-09-17T15:01:29.932Z,0.74
2022-09-17T15:05:22.112Z,0.74
2022-09-17T15:09:20.072Z,0.75
2022-09-17T15:13:19.928Z,0.74
2022-09-17T15:17:20.837Z,0.74
2022-09-17T15:21:23.705Z,0.74
2022-09-17T15:25:20.273Z,0.74
2022-09-17T15:29:20.213Z,0.74
2022-09-17T15:33:21.260Z,0.73
2022-09-17T15:37:21.168Z,0.73
2022-09-17T15:41:21.030Z,0.73
2022-09-17T15:45:47.623Z,0.75
2022-09-17T15:49:20.422Z,0.75
2022-09-17T15:53:22.012Z,0.75
2022-09-17T15:57:20.555Z,0.75
2022-09-17T16:01:24.411Z,0.75
2022-09-17T16:05:21.382Z,0.75
2022-09-17T16:09:20.759Z,0.76
2022-09-17T16:13:23.204Z,0.77
2022-09-17T16:17:20.591Z,0.77
2022-09-17T16:21:25.075Z,0.78
2022-09-17T16:25:20.780Z,0.81
2022-09-17T16:29:20.273Z,0.81
2022-09-17T16:33:20.869Z,0.86
2022-09-17T16:37:20.365Z,0.87
2022-09-17T16:41:21.049Z,0.87
2022-09-17T16:45:20.349Z,0.86
2022-09-17T16:49:20.298Z,0.88
2022-09-17T16:53:27.377Z,0.88
2022-09-17T16:57:20.283Z,0.86
2022-09-17T17:01:25.650Z,0.88
2022-09-17T17:05:21.099Z,0.88
2022-09-17T17:09:25.642Z,0.84
2022-09-17T17:13:20.227Z,0.83
2022-09-17T17:17:21.022Z,0.83
2022-09-17T17:21:21.011Z,0.84
2022-09-17T17:25:20.531Z,0.85
2022-09-17T17:29:21.002Z,0.85
2022-09-17T17:33:20.243Z,0.85
2022-09-17T17:37:26.813Z,0.88
2022-09-17T17:41:21.441Z,0.88
2022-09-17T17:45:20.179Z,0.88
2022-09-17T17:49:20.226Z,0.83
2022-09-17T17:53:20.787Z,0.83
2022-09-17T17:57:20.693Z,0.81
2022-09-17T18:01:23.061Z,0.8
2022-09-17T18:05:26.479Z,0.8
2022-09-17T18:09:20.111Z,0.8
2022-09-17T18:13:23.326Z,0.8
2022-09-17T18:17:21.210Z,0.8
2022-09-17T18:21:20.739Z,0.79
2022-09-17T18:25:20.447Z,0.8
2022-09-17T18:29:20.744Z,0.8
2022-09-17T18:33:20.640Z,0.79
2022-09-17T18:37:24.983Z,0.79
2022-09-17T18:41:21.536Z,0.79
2022-09-17T18:45:20.456Z,0.8
2022-09-17T18:49:21.868Z,0.81
2022-09-17T18:53:20.525Z,0.81
2022-09-17T18:57:19.935Z,0.8
2022-09-17T19:01:24.069Z,0.84
2022-09-17T19:05:20.221Z,0.84
2022-09-17T19:09:20.864Z,0.83
2022-09-17T19:13:19.925Z,0.8
2022-09-17T19:17:20.546Z,0.8
2022-09-17T19:21:20.263Z,0.79
2022-09-17T19:25:20.519Z,0.79
2022-09-17T19:29:20.816Z,0.79
2022-09-17T19:33:20.286Z,0.8
2022-09-17T19:37:20.933Z,0.83
2022-09-17T19:41:20.679Z,0.83
2022-09-17T19:45:20.779Z,0.82
2022-09-17T19:49:21.805Z,0.8
2022-09-17T19:53:20.743Z,0.8
2022-09-17T19:57:20.504Z,0.8
2022-09-17T20:01:23.191Z,0.8
2022-09-17T20:05:20.873Z,0.8
2022-09-17T20:09:27.672Z,0.79
2022-09-17T20:13:20.600Z,0.8
2022-09-17T20:17:20.673Z,0.8
2022-09-17T20:21:20.655Z,0.82
2022-09-17T20:25:24.804Z,0.85
2022-09-17T20:29:20.411Z,0.85
2022-09-17T20:33:24.102Z,0.85
2022-09-17T20:39:11.519Z,0.79
2022-09-17T20:41:20.401Z,0.79
2022-09-17T20:43:19.890Z,0.78
2022-09-17T20:45:20.231Z,0.78
2022-09-17T20:47:25.724Z,0.78
2022-09-17T20:49:21.223Z,0.77
2022-09-17T20:51:20.426Z,0.77
2022-09-17T20:53:20.051Z,0.77
2022-09-17T20:55:20.743Z,0.77
2022-09-17T20:57:20.373Z,0.77
2022-09-17T20:59:26.526Z,0.77
2022-09-17T21:01:23.746Z,0.8
2022-09-17T21:03:21.180Z,0.8
2022-09-17T21:05:22.867Z,0.8
2022-09-17T21:07:20.604Z,0.81
2022-09-17T21:09:20.635Z,0.81
2022-09-17T21:11:20.735Z,0.81
2022-09-17T21:13:23.933Z,0.81
2022-09-17T21:15:20.855Z,0.81
2022-09-17T21:17:20.663Z,0.81
2022-09-17T21:19:24.806Z,0.82
2022-09-17T21:21:20.689Z,0.82
2022-09-17T21:23:20.696Z,0.82
2022-09-17T21:25:20.161Z,0.79
2022-09-17T21:27:20.904Z,0.79
2022-09-17T21:29:20.365Z,0.79
2022-09-17T21:31:21.019Z,0.78
2022-09-17T21:33:20.858Z,0.78
2022-09-17T21:35:20.305Z,0.78
2022-09-17T21:37:20.896Z,0.77
2022-09-17T21:39:20.070Z,0.77
2022-09-17T21:41:21.086Z,0.77
2022-09-17T21:43:20.799Z,0.77
2022-09-17T21:45:20.641Z,0.77
2022-09-17T21:47:23.888Z,0.77
2022-09-17T21:49:20.703Z,0.77
2022-09-17T21:51:20.706Z,0.77
2022-09-17T21:53:20.929Z,0.77
2022-09-17T21:55:20.348Z,0.76
2022-09-17T21:57:21.039Z,0.76
2022-09-17T21:59:20.217Z,0.76
2022-09-17T22:01:20.827Z,0.74
2022-09-17T22:03:20.986Z,0.74
2022-09-17T22:05:20.767Z,0.74
2022-09-17T22:07:22.708Z,0.74
2022-09-17T22:09:20.724Z,0.74
2022-09-17T22:11:20.276Z,0.74
2022-09-17T22:13:20.705Z,0.75
2022-09-17T22:15:20.280Z,0.75
2022-09-17T22:17:20.532Z,0.75
2022-09-17T22:19:23.307Z,0.75
2022-09-17T22:21:20.830Z,0.75
2022-09-17T22:23:20.721Z,0.75
2022-09-17T22:25:20.037Z,0.76
2022-09-17T22:27:21.130Z,0.76
2022-09-17T22:29:39.901Z,0.76
2022-09-17T22:31:20.439Z,0.75
2022-09-17T22:33:20.465Z,0.75
2022-09-17T22:35:20.705Z,0.75
2022-09-17T22:37:20.674Z,0.73
2022-09-17T22:39:20.472Z,0.73
2022-09-17T22:41:20.851Z,0.73
2022-09-17T22:43:20.212Z,0.73
2022-09-17T22:45:20.454Z,0.73
2022-09-17T22:47:21.197Z,0.73
2022-09-17T22:49:20.522Z,0.72
2022-09-17T22:51:20.732Z,0.72
2022-09-17T22:53:20.020Z,0.72
2022-09-17T22:55:20.540Z,0.72
2022-09-17T22:57:20.353Z,0.72
2022-09-17T22:59:20.931Z,0.72
2022-09-17T23:01:23.363Z,0.72
2022-09-17T23:03:21.127Z,0.72
2022-09-17T23:05:20.933Z,0.72
2022-09-17T23:07:20.994Z,0.73
2022-09-17T23:09:20.069Z,0.73
2022-09-17T23:11:20.153Z,0.73
2022-09-17T23:13:20.242Z,0.73
2022-09-17T23:15:20.228Z,0.73
2022-09-17T23:17:23.966Z,0.73
2022-09-17T23:19:21.035Z,0.73
2022-09-17T23:21:20.421Z,0.73
2022-09-17T23:23:24.503Z,0.73
2022-09-17T23:25:20.182Z,0.74
2022-09-17T23:27:20.819Z,0.74
2022-09-17T23:29:27.070Z,0.74
2022-09-17T23:31:20.827Z,0.75
2022-09-17T23:33:20.913Z,0.75
2022-09-17T23:35:20.198Z,0.75
2022-09-17T23:37:20.317Z,0.77
2022-09-17T23:39:20.331Z,0.77
2022-09-17T23:41:21.318Z,0.77
2022-09-17T23:43:20.377Z,0.81
2022-09-17T23:45:23.758Z,0.81
2022-09-17T23:47:21.333Z,0.81
2022-09-17T23:49:20.287Z,0.82
2022-09-17T23:51:20.561Z,0.82
2022-09-17T23:53:20.171Z,0.82
2022-09-17T23:55:21.235Z,0.82
2022-09-17T23:57:20.617Z,0.82
2022-09-17T23:59:20.291Z,0.82
